sensor_id;sensor_type;location;lat;lon;timestamp;pressure;altitude;pressure_sealevel;temperature;humidity
13013;BME280;22580;57.670;12.006;2023-05-01T00:00:56;101654.44;;;17.21;48.16
13013;BME280;22580;57.670;12.006;2023-05-01T00:03:24;101643.81;;;17.50;47.48
13013;BME280;22580;57.670;12.006;2023-05-01T00:05:58;101649.56;;;16.49;49.66
13013;BME280;22580;57.670;12.006;2023-05-01T00:08:25;101608.94;;;16.62;49.48
13013;BME280;22580;57.670;12.006;2023-05-01T00:10:52;101638.47;;;16.86;49.74
13013;BME280;22580;57.670;12.006;2023-05-01T00:13:20;101612.25;;;16.77;49.53
13013;BME280;22580;57.670;12.006;2023-05-01T00:15:49;101635.47;;;16.68;46.67
13013;BME280;22580;57.670;12.006;2023-05-01T00:18:19;101629.75;;;16.17;44.62
13013;BME280;22580;57.670;12.006;2023-05-01T00:20:47;101626.47;;;16.02;45.23
13013;BME280;22580;57.670;12.006;2023-05-01T00:23:14;101631.59;;;16.38;45.30
13013;BME280;22580;57.670;12.006;2023-05-01T00:25:42;101617.97;;;16.40;44.94
13013;BME280;22580;57.670;12.006;2023-05-01T00:28:09;101624.38;;;16.82;44.02
13013;BME280;22580;57.670;12.006;2023-05-01T00:30:37;101630.06;;;16.68;43.69
13013;BME280;22580;57.670;12.006;2023-05-01T00:33:05;101619.88;;;16.49;43.94
13013;BME280;22580;57.670;12.006;2023-05-01T00:35:34;101611.50;;;16.63;43.90
13013;BME280;22580;57.670;12.006;2023-05-01T00:38:02;101620.25;;;16.67;43.77
13013;BME280;22580;57.670;12.006;2023-05-01T00:40:29;101616.78;;;16.76;43.83
13013;BME280;22580;57.670;12.006;2023-05-01T00:42:57;101619.13;;;16.58;45.17
13013;BME280;22580;57.670;12.006;2023-05-01T00:45:25;101609.06;;;16.71;45.53
13013;BME280;22580;57.670;12.006;2023-05-01T00:47:52;101608.09;;;16.73;46.45
13013;BME280;22580;57.670;12.006;2023-05-01T00:50:19;101605.72;;;16.79;46.92
13013;BME280;22580;57.670;12.006;2023-05-01T00:52:48;101621.00;;;16.47;47.03
13013;BME280;22580;57.670;12.006;2023-05-01T00:55:16;101615.09;;;16.53;45.88
13013;BME280;22580;57.670;12.006;2023-05-01T00:57:43;101605.72;;;16.36;46.46
13013;BME280;22580;57.670;12.006;2023-05-01T01:00:12;101609.69;;;16.53;47.25
13013;BME280;22580;57.670;12.006;2023-05-01T01:02:41;101598.13;;;16.62;46.64
13013;BME280;22580;57.670;12.006;2023-05-01T01:05:08;101570.53;;;16.15;48.45
13013;BME280;22580;57.670;12.006;2023-05-01T01:07:39;101585.63;;;16.61;47.50
13013;BME280;22580;57.670;12.006;2023-05-01T01:10:15;101594.97;;;16.57;48.39
13013;BME280;22580;57.670;12.006;2023-05-01T01:12:51;101603.31;;;16.54;49.15
13013;BME280;22580;57.670;12.006;2023-05-01T01:15:26;101568.31;;;16.31;49.04
13013;BME280;22580;57.670;12.006;2023-05-01T01:18:00;101594.94;;;16.02;51.17
13013;BME280;22580;57.670;12.006;2023-05-01T01:20:31;101582.69;;;16.10;50.51
13013;BME280;22580;57.670;12.006;2023-05-01T01:23:35;101591.63;;;16.21;50.69
13013;BME280;22580;57.670;12.006;2023-05-01T01:26:26;101579.34;;;16.28;50.90
13013;BME280;22580;57.670;12.006;2023-05-01T01:32:40;101566.59;;;16.30;51.13
13013;BME280;22580;57.670;12.006;2023-05-01T01:35:23;101559.91;;;15.80;52.96
13013;BME280;22580;57.670;12.006;2023-05-01T01:37:58;101534.25;;;16.08;51.91
13013;BME280;22580;57.670;12.006;2023-05-01T01:40:32;101562.44;;;16.15;52.30
13013;BME280;22580;57.670;12.006;2023-05-01T01:43:03;101556.56;;;16.53;51.61
13013;BME280;22580;57.670;12.006;2023-05-01T01:45:35;101554.97;;;16.51;51.75
13013;BME280;22580;57.670;12.006;2023-05-01T01:48:05;101552.72;;;16.35;52.61
13013;BME280;22580;57.670;12.006;2023-05-01T01:50:36;101505.13;;;15.80;53.46
13013;BME280;22580;57.670;12.006;2023-05-01T01:53:07;101513.31;;;15.89;54.19
13013;BME280;22580;57.670;12.006;2023-05-01T01:55:35;101542.38;;;15.97;54.66
13013;BME280;22580;57.670;12.006;2023-05-01T01:58:05;101520.28;;;16.03;54.67
13013;BME280;22580;57.670;12.006;2023-05-01T02:00:35;101544.66;;;16.56;54.08
13013;BME280;22580;57.670;12.006;2023-05-01T02:03:04;101466.66;;;15.66;56.25
13013;BME280;22580;57.670;12.006;2023-05-01T02:05:35;101466.78;;;15.76;56.79
13013;BME280;22580;57.670;12.006;2023-05-01T02:08:04;101527.81;;;16.43;56.02
13013;BME280;22580;57.670;12.006;2023-05-01T02:10:32;101532.16;;;16.55;55.20
13013;BME280;22580;57.670;12.006;2023-05-01T02:13:01;101525.41;;;16.28;56.48
13013;BME280;22580;57.670;12.006;2023-05-01T02:15:33;101494.72;;;15.75;57.62
13013;BME280;22580;57.670;12.006;2023-05-01T02:18:01;101515.56;;;16.38;57.36
13013;BME280;22580;57.670;12.006;2023-05-01T02:20:29;101511.13;;;15.94;58.63
13013;BME280;22580;57.670;12.006;2023-05-01T02:22:58;101514.41;;;16.09;58.45
13013;BME280;22580;57.670;12.006;2023-05-01T02:25:30;101503.31;;;16.55;57.71
13013;BME280;22580;57.670;12.006;2023-05-01T02:28:02;101497.63;;;16.05;59.00
13013;BME280;22580;57.670;12.006;2023-05-01T02:30:33;101494.88;;;16.49;58.46
13013;BME280;22580;57.670;12.006;2023-05-01T02:33:00;101497.53;;;15.85;60.68
13013;BME280;22580;57.670;12.006;2023-05-01T02:35:27;101499.75;;;16.55;59.06
13013;BME280;22580;57.670;12.006;2023-05-01T02:37:54;101467.41;;;16.23;59.08
13013;BME280;22580;57.670;12.006;2023-05-01T02:40:23;101482.59;;;16.24;59.98
13013;BME280;22580;57.670;12.006;2023-05-01T02:42:51;101491.13;;;16.40;60.58
13013;BME280;22580;57.670;12.006;2023-05-01T02:45:20;101442.47;;;16.30;60.03
13013;BME280;22580;57.670;12.006;2023-05-01T02:47:50;101481.94;;;16.63;59.70
13013;BME280;22580;57.670;12.006;2023-05-01T02:50:18;101475.78;;;16.73;59.56
13013;BME280;22580;57.670;12.006;2023-05-01T02:52:50;101455.78;;;16.64;59.02
13013;BME280;22580;57.670;12.006;2023-05-01T02:55:17;101474.22;;;16.59;60.26
13013;BME280;22580;57.670;12.006;2023-05-01T02:57:46;101480.19;;;16.74;60.61
13013;BME280;22580;57.670;12.006;2023-05-01T03:00:16;101474.75;;;16.85;61.63
13013;BME280;22580;57.670;12.006;2023-05-01T03:02:43;101476.44;;;17.07;60.70
13013;BME280;22580;57.670;12.006;2023-05-01T03:05:10;101467.81;;;17.13;61.59
13013;BME280;22580;57.670;12.006;2023-05-01T03:07:37;101454.44;;;17.82;59.35
13013;BME280;22580;57.670;12.006;2023-05-01T03:10:05;101438.38;;;17.90;58.09
13013;BME280;22580;57.670;12.006;2023-05-01T03:12:32;101450.00;;;17.31;60.64
13013;BME280;22580;57.670;12.006;2023-05-01T03:15:01;101454.19;;;17.54;59.22
13013;BME280;22580;57.670;12.006;2023-05-01T03:17:28;101448.38;;;17.59;59.20
13013;BME280;22580;57.670;12.006;2023-05-01T03:19:55;101443.16;;;17.67;59.34
13013;BME280;22580;57.670;12.006;2023-05-01T03:22:22;101435.69;;;17.99;58.68
13013;BME280;22580;57.670;12.006;2023-05-01T03:24:49;101430.72;;;18.33;57.78
13013;BME280;22580;57.670;12.006;2023-05-01T03:27:16;101417.91;;;18.16;56.45
13013;BME280;22580;57.670;12.006;2023-05-01T03:29:43;101419.75;;;18.25;55.92
13013;BME280;22580;57.670;12.006;2023-05-01T03:32:11;101403.81;;;18.13;56.19
13013;BME280;22580;57.670;12.006;2023-05-01T03:34:39;101407.22;;;17.95;56.56
13013;BME280;22580;57.670;12.006;2023-05-01T03:37:06;101414.63;;;17.93;57.39
13013;BME280;22580;57.670;12.006;2023-05-01T03:39:33;101411.63;;;18.25;56.45
13013;BME280;22580;57.670;12.006;2023-05-01T03:42:00;101399.66;;;17.89;56.79
13013;BME280;22580;57.670;12.006;2023-05-01T03:44:28;101403.25;;;17.99;57.03
13013;BME280;22580;57.670;12.006;2023-05-01T03:46:55;101400.38;;;18.20;56.28
13013;BME280;22580;57.670;12.006;2023-05-01T03:49:24;101402.63;;;17.77;58.06
13013;BME280;22580;57.670;12.006;2023-05-01T03:51:51;101401.41;;;18.10;57.37
13013;BME280;22580;57.670;12.006;2023-05-01T03:54:18;101403.09;;;18.11;56.81
13013;BME280;22580;57.670;12.006;2023-05-01T03:56:45;101391.56;;;18.09;56.77
13013;BME280;22580;57.670;12.006;2023-05-01T03:59:12;101396.22;;;17.78;57.90
13013;BME280;22580;57.670;12.006;2023-05-01T04:01:39;101394.81;;;17.83;58.54
13013;BME280;22580;57.670;12.006;2023-05-01T04:04:06;101387.56;;;17.93;58.54
13013;BME280;22580;57.670;12.006;2023-05-01T04:06:39;101388.56;;;18.02;58.15
13013;BME280;22580;57.670;12.006;2023-05-01T04:09:06;101384.31;;;18.09;57.76
13013;BME280;22580;57.670;12.006;2023-05-01T04:11:33;101346.72;;;18.06;56.88
13013;BME280;22580;57.670;12.006;2023-05-01T04:14:00;101346.84;;;17.95;57.19
13013;BME280;22580;57.670;12.006;2023-05-01T04:16:27;101355.81;;;17.95;57.82
13013;BME280;22580;57.670;12.006;2023-05-01T04:18:54;101371.34;;;18.03;58.45
13013;BME280;22580;57.670;12.006;2023-05-01T04:21:21;101373.84;;;17.66;59.92
13013;BME280;22580;57.670;12.006;2023-05-01T04:23:50;101362.47;;;17.72;59.97
13013;BME280;22580;57.670;12.006;2023-05-01T04:26:16;101365.19;;;17.82;59.70
13013;BME280;22580;57.670;12.006;2023-05-01T04:28:43;101362.63;;;17.71;60.00
13013;BME280;22580;57.670;12.006;2023-05-01T04:31:10;101347.06;;;17.63;60.43
13013;BME280;22580;57.670;12.006;2023-05-01T04:33:37;101360.16;;;17.58;61.56
13013;BME280;22580;57.670;12.006;2023-05-01T04:36:04;101355.94;;;17.75;61.21
13013;BME280;22580;57.670;12.006;2023-05-01T04:38:31;101347.25;;;17.71;60.98
13013;BME280;22580;57.670;12.006;2023-05-01T04:41:03;101349.91;;;17.61;61.75
13013;BME280;22580;57.670;12.006;2023-05-01T04:43:30;101345.06;;;17.65;62.00
13013;BME280;22580;57.670;12.006;2023-05-01T04:45:57;101341.44;;;17.76;62.44
13013;BME280;22580;57.670;12.006;2023-05-01T04:48:24;101308.78;;;17.58;61.82
13013;BME280;22580;57.670;12.006;2023-05-01T04:50:51;101336.28;;;18.21;61.53
13013;BME280;22580;57.670;12.006;2023-05-01T04:53:19;101328.28;;;18.39;60.43
13013;BME280;22580;57.670;12.006;2023-05-01T04:55:46;101305.56;;;18.12;60.29
13013;BME280;22580;57.670;12.006;2023-05-01T04:58:14;101314.53;;;18.03;61.30
13013;BME280;22580;57.670;12.006;2023-05-01T05:00:41;101325.19;;;18.14;60.86
13013;BME280;22580;57.670;12.006;2023-05-01T05:03:08;101313.75;;;18.40;60.34
13013;BME280;22580;57.670;12.006;2023-05-01T05:05:35;101319.44;;;18.46;60.00
13013;BME280;22580;57.670;12.006;2023-05-01T05:08:03;101313.00;;;18.57;60.05
13013;BME280;22580;57.670;12.006;2023-05-01T05:10:30;101286.31;;;18.15;60.43
13013;BME280;22580;57.670;12.006;2023-05-01T05:12:57;101323.09;;;18.74;58.78
13013;BME280;22580;57.670;12.006;2023-05-01T05:15:25;101300.44;;;18.75;59.47
13013;BME280;22580;57.670;12.006;2023-05-01T05:17:52;101296.88;;;18.75;58.36
13013;BME280;22580;57.670;12.006;2023-05-01T05:20:19;101297.41;;;18.78;58.51
13013;BME280;22580;57.670;12.006;2023-05-01T05:22:47;101310.47;;;18.36;60.46
13013;BME280;22580;57.670;12.006;2023-05-01T05:25:14;101296.38;;;18.32;61.43
13013;BME280;22580;57.670;12.006;2023-05-01T05:27:40;101294.81;;;18.86;59.80
13013;BME280;22580;57.670;12.006;2023-05-01T05:30:08;101295.19;;;19.01;59.19
13013;BME280;22580;57.670;12.006;2023-05-01T05:32:37;101302.16;;;19.04;58.75
13013;BME280;22580;57.670;12.006;2023-05-01T05:35:05;101281.97;;;19.16;58.78
13013;BME280;22580;57.670;12.006;2023-05-01T05:37:32;101287.53;;;19.14;58.61
13013;BME280;22580;57.670;12.006;2023-05-01T05:40:00;101291.03;;;19.24;58.36
13013;BME280;22580;57.670;12.006;2023-05-01T05:42:27;101283.16;;;19.31;57.75
13013;BME280;22580;57.670;12.006;2023-05-01T05:44:54;101273.16;;;19.31;58.04
13013;BME280;22580;57.670;12.006;2023-05-01T05:47:21;101275.66;;;19.43;57.42
13013;BME280;22580;57.670;12.006;2023-05-01T05:49:50;101272.38;;;19.21;57.45
13013;BME280;22580;57.670;12.006;2023-05-01T05:52:19;101278.22;;;19.44;58.23
13013;BME280;22580;57.670;12.006;2023-05-01T05:54:46;101274.78;;;19.70;57.44
13013;BME280;22580;57.670;12.006;2023-05-01T05:57:13;101278.06;;;19.46;57.21
13013;BME280;22580;57.670;12.006;2023-05-01T05:59:40;101270.28;;;19.33;57.61
13013;BME280;22580;57.670;12.006;2023-05-01T06:02:07;101277.44;;;19.34;58.36
13013;BME280;22580;57.670;12.006;2023-05-01T06:04:34;101274.34;;;19.47;58.80
13013;BME280;22580;57.670;12.006;2023-05-01T06:07:06;101257.22;;;19.46;57.58
13013;BME280;22580;57.670;12.006;2023-05-01T06:09:33;101238.63;;;19.33;58.12
13013;BME280;22580;57.670;12.006;2023-05-01T06:12:00;101267.41;;;19.62;58.24
13013;BME280;22580;57.670;12.006;2023-05-01T06:14:29;101270.78;;;19.46;58.11
13013;BME280;22580;57.670;12.006;2023-05-01T06:16:56;101266.41;;;19.63;57.94
13013;BME280;22580;57.670;12.006;2023-05-01T06:19:24;101259.97;;;19.64;57.99
13013;BME280;22580;57.670;12.006;2023-05-01T06:21:51;101254.47;;;19.74;57.89
13013;BME280;22580;57.670;12.006;2023-05-01T06:24:20;101253.63;;;19.55;58.18
13013;BME280;22580;57.670;12.006;2023-05-01T06:26:47;101247.03;;;19.58;58.57
13013;BME280;22580;57.670;12.006;2023-05-01T06:29:14;101248.56;;;19.78;58.63
13013;BME280;22580;57.670;12.006;2023-05-01T06:31:41;101244.16;;;19.77;57.84
13013;BME280;22580;57.670;12.006;2023-05-01T06:34:08;101227.41;;;19.82;57.77
13013;BME280;22580;57.670;12.006;2023-05-01T06:36:37;101231.16;;;19.63;58.84
13013;BME280;22580;57.670;12.006;2023-05-01T06:39:04;101214.75;;;19.90;57.73
13013;BME280;22580;57.670;12.006;2023-05-01T06:41:32;101219.91;;;20.02;57.29
13013;BME280;22580;57.670;12.006;2023-05-01T06:44:00;101209.75;;;20.04;57.22
13013;BME280;22580;57.670;12.006;2023-05-01T06:46:28;101181.84;;;19.50;57.84
13013;BME280;22580;57.670;12.006;2023-05-01T06:48:55;101211.91;;;19.74;57.79
13013;BME280;22580;57.670;12.006;2023-05-01T06:51:22;101206.63;;;19.90;57.81
13013;BME280;22580;57.670;12.006;2023-05-01T06:53:49;101201.75;;;19.76;58.40
13013;BME280;22580;57.670;12.006;2023-05-01T06:56:17;101153.41;;;19.18;59.13
13013;BME280;22580;57.670;12.006;2023-05-01T06:58:47;101195.56;;;19.66;58.78
13013;BME280;22580;57.670;12.006;2023-05-01T07:01:16;101160.47;;;19.64;58.54
13013;BME280;22580;57.670;12.006;2023-05-01T07:03:43;101146.47;;;19.51;59.06
13013;BME280;22580;57.670;12.006;2023-05-01T07:06:10;101185.16;;;19.79;58.59
13013;BME280;22580;57.670;12.006;2023-05-01T07:08:37;101186.72;;;19.82;58.94
13013;BME280;22580;57.670;12.006;2023-05-01T07:11:04;101179.13;;;19.85;58.85
13013;BME280;22580;57.670;12.006;2023-05-01T07:13:33;101159.97;;;19.87;58.30
13013;BME280;22580;57.670;12.006;2023-05-01T07:16:02;101180.06;;;20.02;58.21
13013;BME280;22580;57.670;12.006;2023-05-01T07:18:33;101178.75;;;19.27;60.11
13013;BME280;22580;57.670;12.006;2023-05-01T07:21:00;101148.53;;;19.40;60.34
13013;BME280;22580;57.670;12.006;2023-05-01T07:23:31;101165.72;;;19.13;61.62
13013;BME280;22580;57.670;12.006;2023-05-01T07:26:02;101176.34;;;19.06;61.34
13013;BME280;22580;57.670;12.006;2023-05-01T07:28:30;101170.44;;;19.11;61.56
13013;BME280;22580;57.670;12.006;2023-05-01T07:30:57;101162.94;;;19.40;61.18
13013;BME280;22580;57.670;12.006;2023-05-01T07:33:27;101166.13;;;19.36;61.58
13013;BME280;22580;57.670;12.006;2023-05-01T07:35:55;101165.06;;;18.28;64.66
13013;BME280;22580;57.670;12.006;2023-05-01T07:38:23;101153.59;;;18.17;65.31
13013;BME280;22580;57.670;12.006;2023-05-01T07:40:52;101122.06;;;18.53;65.90
13013;BME280;22580;57.670;12.006;2023-05-01T07:43:20;101150.34;;;18.95;64.66
13013;BME280;22580;57.670;12.006;2023-05-01T07:45:56;101142.91;;;18.97;64.60
13013;BME280;22580;57.670;12.006;2023-05-01T07:48:28;101084.41;;;18.32;64.21
13013;BME280;22580;57.670;12.006;2023-05-01T07:50:56;101141.19;;;19.14;62.75
13013;BME280;22580;57.670;12.006;2023-05-01T07:53:23;101134.47;;;19.01;62.68
13013;BME280;22580;57.670;12.006;2023-05-01T07:55:52;101126.72;;;19.06;62.79
13013;BME280;22580;57.670;12.006;2023-05-01T07:58:19;101131.91;;;19.17;63.69
13013;BME280;22580;57.670;12.006;2023-05-01T08:00:46;101109.78;;;18.86;63.19
13013;BME280;22580;57.670;12.006;2023-05-01T08:03:14;101139.34;;;18.97;63.12
13013;BME280;22580;57.670;12.006;2023-05-01T08:05:43;101111.75;;;18.66;64.85
13013;BME280;22580;57.670;12.006;2023-05-01T08:08:11;101123.22;;;19.31;62.76
13013;BME280;22580;57.670;12.006;2023-05-01T08:10:45;101086.56;;;19.01;62.06
13013;BME280;22580;57.670;12.006;2023-05-01T08:13:12;101127.09;;;19.28;62.36
13013;BME280;22580;57.670;12.006;2023-05-01T08:15:40;101125.53;;;19.08;61.27
13013;BME280;22580;57.670;12.006;2023-05-01T08:18:08;101117.72;;;18.70;61.72
13013;BME280;22580;57.670;12.006;2023-05-01T08:20:35;101115.34;;;19.02;60.95
13013;BME280;22580;57.670;12.006;2023-05-01T08:23:04;101113.09;;;18.80;61.24
13013;BME280;22580;57.670;12.006;2023-05-01T08:25:30;101111.78;;;19.02;59.99
13013;BME280;22580;57.670;12.006;2023-05-01T08:27:58;101087.94;;;18.70;61.29
13013;BME280;22580;57.670;12.006;2023-05-01T08:30:26;101105.75;;;18.90;60.92
13013;BME280;22580;57.670;12.006;2023-05-01T08:32:53;101107.34;;;18.65;61.32
13013;BME280;22580;57.670;12.006;2023-05-01T08:35:20;101085.69;;;18.65;60.57
13013;BME280;22580;57.670;12.006;2023-05-01T08:37:47;101077.19;;;18.95;59.36
13013;BME280;22580;57.670;12.006;2023-05-01T08:40:16;101082.34;;;19.07;58.76
13013;BME280;22580;57.670;12.006;2023-05-01T08:42:43;101079.84;;;18.60;59.58
13013;BME280;22580;57.670;12.006;2023-05-01T08:45:11;101084.38;;;18.42;60.83
13013;BME280;22580;57.670;12.006;2023-05-01T08:47:38;101097.41;;;18.56;61.49
13013;BME280;22580;57.670;12.006;2023-05-01T08:50:09;101064.09;;;18.73;60.91
13013;BME280;22580;57.670;12.006;2023-05-01T08:52:39;101080.38;;;18.91;59.80
13013;BME280;22580;57.670;12.006;2023-05-01T08:55:11;101060.84;;;18.70;60.30
13013;BME280;22580;57.670;12.006;2023-05-01T08:57:43;101072.19;;;19.09;59.19
13013;BME280;22580;57.670;12.006;2023-05-01T09:00:16;101054.69;;;19.21;58.20
13013;BME280;22580;57.670;12.006;2023-05-01T09:02:45;101083.69;;;18.57;60.61
13013;BME280;22580;57.670;12.006;2023-05-01T09:05:14;101062.41;;;18.45;61.37
13013;BME280;22580;57.670;12.006;2023-05-01T09:07:43;101069.22;;;18.76;60.78
13013;BME280;22580;57.670;12.006;2023-05-01T09:10:11;101074.47;;;18.95;59.85
13013;BME280;22580;57.670;12.006;2023-05-01T09:12:41;101055.97;;;18.91;60.51
13013;BME280;22580;57.670;12.006;2023-05-01T09:15:11;101062.09;;;18.93;61.51
13013;BME280;22580;57.670;12.006;2023-05-01T09:17:39;101061.63;;;19.41;59.09
13013;BME280;22580;57.670;12.006;2023-05-01T09:20:07;101051.63;;;19.59;58.22
13013;BME280;22580;57.670;12.006;2023-05-01T09:22:36;101059.50;;;19.71;58.14
13013;BME280;22580;57.670;12.006;2023-05-01T09:25:03;101048.63;;;19.27;58.77
13013;BME280;22580;57.670;12.006;2023-05-01T09:27:33;101031.31;;;19.20;59.39
13013;BME280;22580;57.670;12.006;2023-05-01T09:30:03;101064.56;;;19.48;59.29
13013;BME280;22580;57.670;12.006;2023-05-01T09:32:31;101031.09;;;19.39;59.29
13013;BME280;22580;57.670;12.006;2023-05-01T09:35:08;101045.13;;;19.35;58.73
13013;BME280;22580;57.670;12.006;2023-05-01T09:37:36;101048.47;;;19.28;59.14
13013;BME280;22580;57.670;12.006;2023-05-01T09:40:07;101037.03;;;18.46;61.91
13013;BME280;22580;57.670;12.006;2023-05-01T09:42:35;101047.63;;;18.84;60.74
13013;BME280;22580;57.670;12.006;2023-05-01T09:45:10;101049.00;;;18.88;61.97
13013;BME280;22580;57.670;12.006;2023-05-01T09:47:37;101023.66;;;19.15;59.82
13013;BME280;22580;57.670;12.006;2023-05-01T09:50:06;101047.84;;;19.35;59.42
13013;BME280;22580;57.670;12.006;2023-05-01T09:52:33;101034.88;;;19.20;58.76
13013;BME280;22580;57.670;12.006;2023-05-01T09:55:13;101047.69;;;19.36;58.60
13013;BME280;22580;57.670;12.006;2023-05-01T09:57:41;101013.56;;;18.82;59.60
13013;BME280;22580;57.670;12.006;2023-05-01T10:00:11;101040.78;;;19.42;59.23
13013;BME280;22580;57.670;12.006;2023-05-01T10:02:40;101030.72;;;19.34;59.68
13013;BME280;22580;57.670;12.006;2023-05-01T10:05:08;101030.72;;;19.52;59.23
13013;BME280;22580;57.670;12.006;2023-05-01T10:07:37;101016.44;;;19.24;59.36
13013;BME280;22580;57.670;12.006;2023-05-01T10:10:15;101022.53;;;19.70;59.12
13013;BME280;22580;57.670;12.006;2023-05-01T10:12:43;101025.19;;;19.61;58.78
13013;BME280;22580;57.670;12.006;2023-05-01T10:15:14;100990.59;;;19.38;58.18
13013;BME280;22580;57.670;12.006;2023-05-01T10:17:43;101003.13;;;19.56;58.43
13013;BME280;22580;57.670;12.006;2023-05-01T10:20:11;101013.03;;;19.22;58.96
13013;BME280;22580;57.670;12.006;2023-05-01T10:22:40;100993.38;;;19.20;60.18
13013;BME280;22580;57.670;12.006;2023-05-01T10:25:08;100956.44;;;18.40;61.02
13013;BME280;22580;57.670;12.006;2023-05-01T10:27:37;100990.91;;;19.09;59.21
13013;BME280;22580;57.670;12.006;2023-05-01T10:30:06;100993.38;;;19.46;59.02
13013;BME280;22580;57.670;12.006;2023-05-01T10:32:36;100982.63;;;20.04;56.73
13013;BME280;22580;57.670;12.006;2023-05-01T10:35:08;100959.34;;;19.93;56.53
13013;BME280;22580;57.670;12.006;2023-05-01T10:37:43;100970.00;;;19.79;57.35
13013;BME280;22580;57.670;12.006;2023-05-01T10:40:43;100982.53;;;20.22;57.23
13013;BME280;22580;57.670;12.006;2023-05-01T10:43:15;100988.50;;;20.34;55.35
13013;BME280;22580;57.670;12.006;2023-05-01T10:45:43;100953.31;;;20.16;55.25
13013;BME280;22580;57.670;12.006;2023-05-01T10:48:12;100971.91;;;20.45;54.71
13013;BME280;22580;57.670;12.006;2023-05-01T10:51:09;100963.94;;;20.59;54.03
13013;BME280;22580;57.670;12.006;2023-05-01T10:53:38;100939.50;;;20.43;54.00
13013;BME280;22580;57.670;12.006;2023-05-01T10:59:10;100948.31;;;20.45;54.13
13013;BME280;22580;57.670;12.006;2023-05-01T11:01:38;100932.28;;;20.18;54.61
13013;BME280;22580;57.670;12.006;2023-05-01T11:04:45;100929.25;;;20.29;52.93
13013;BME280;22580;57.670;12.006;2023-05-01T11:07:17;100917.63;;;20.61;53.06
13013;BME280;22580;57.670;12.006;2023-05-01T11:09:45;100941.97;;;20.20;54.06
13013;BME280;22580;57.670;12.006;2023-05-01T11:12:14;100912.25;;;20.03;53.98
13013;BME280;22580;57.670;12.006;2023-05-01T11:15:01;100933.72;;;20.46;53.76
13013;BME280;22580;57.670;12.006;2023-05-01T11:17:45;100932.38;;;20.58;53.07
13013;BME280;22580;57.670;12.006;2023-05-01T11:23:28;100930.47;;;20.35;53.34
13013;BME280;22580;57.670;12.006;2023-05-01T11:26:02;100908.72;;;20.91;52.44
13013;BME280;22580;57.670;12.006;2023-05-01T11:28:30;100906.06;;;20.75;52.70
13013;BME280;22580;57.670;12.006;2023-05-01T11:30:58;100911.63;;;20.90;52.29
13013;BME280;22580;57.670;12.006;2023-05-01T11:33:26;100909.94;;;20.89;51.83
13013;BME280;22580;57.670;12.006;2023-05-01T11:35:57;100917.25;;;20.80;51.64
13013;BME280;22580;57.670;12.006;2023-05-01T11:38:25;100910.44;;;20.84;51.97
13013;BME280;22580;57.670;12.006;2023-05-01T11:40:58;100894.53;;;20.65;50.84
13013;BME280;22580;57.670;12.006;2023-05-01T11:43:29;100885.47;;;20.89;50.81
13013;BME280;22580;57.670;12.006;2023-05-01T11:45:56;100900.47;;;20.44;50.15
13013;BME280;22580;57.670;12.006;2023-05-01T11:48:28;100860.19;;;20.23;51.74
13013;BME280;22580;57.670;12.006;2023-05-01T11:50:55;100860.22;;;20.64;50.56
13013;BME280;22580;57.670;12.006;2023-05-01T11:53:23;100887.38;;;20.72;50.65
13013;BME280;22580;57.670;12.006;2023-05-01T11:55:50;100883.72;;;21.12;49.90
13013;BME280;22580;57.670;12.006;2023-05-01T11:58:29;100826.97;;;20.54;49.44
13013;BME280;22580;57.670;12.006;2023-05-01T12:00:56;100838.50;;;20.72;48.84
13013;BME280;22580;57.670;12.006;2023-05-01T12:03:23;100875.50;;;20.57;49.39
13013;BME280;22580;57.670;12.006;2023-05-01T12:05:51;100869.91;;;20.67;49.63
13013;BME280;22580;57.670;12.006;2023-05-01T12:08:20;100848.31;;;20.00;51.56
13013;BME280;22580;57.670;12.006;2023-05-01T12:10:49;100846.94;;;20.04;52.71
13013;BME280;22580;57.670;12.006;2023-05-01T12:13:19;100810.31;;;20.24;51.87
13013;BME280;22580;57.670;12.006;2023-05-01T12:15:47;100849.19;;;20.33;51.41
13013;BME280;22580;57.670;12.006;2023-05-01T12:18:15;100863.59;;;20.25;51.96
13013;BME280;22580;57.670;12.006;2023-05-01T12:20:44;100864.94;;;20.29;51.76
13013;BME280;22580;57.670;12.006;2023-05-01T12:23:13;100851.81;;;21.06;49.77
13013;BME280;22580;57.670;12.006;2023-05-01T12:25:41;100851.75;;;20.51;50.65
13013;BME280;22580;57.670;12.006;2023-05-01T12:28:11;100844.09;;;20.71;50.29
13013;BME280;22580;57.670;12.006;2023-05-01T12:30:42;100823.72;;;20.10;51.64
13013;BME280;22580;57.670;12.006;2023-05-01T12:33:12;100829.50;;;20.64;50.19
13013;BME280;22580;57.670;12.006;2023-05-01T12:35:40;100839.97;;;20.83;50.66
13013;BME280;22580;57.670;12.006;2023-05-01T12:38:11;100827.47;;;21.21;49.29
13013;BME280;22580;57.670;12.006;2023-05-01T12:40:47;100819.72;;;21.02;49.82
13013;BME280;22580;57.670;12.006;2023-05-01T12:43:15;100824.91;;;21.27;48.62
13013;BME280;22580;57.670;12.006;2023-05-01T12:45:43;100797.16;;;20.85;49.04
13013;BME280;22580;57.670;12.006;2023-05-01T12:48:11;100804.06;;;21.04;48.93
13013;BME280;22580;57.670;12.006;2023-05-01T12:50:40;100816.34;;;21.47;47.83
13013;BME280;22580;57.670;12.006;2023-05-01T12:53:08;100796.59;;;21.06;48.89
13013;BME280;22580;57.670;12.006;2023-05-01T12:55:43;100799.31;;;21.06;48.32
13013;BME280;22580;57.670;12.006;2023-05-01T12:58:11;100779.75;;;20.71;48.95
13013;BME280;22580;57.670;12.006;2023-05-01T13:00:46;100729.19;;;20.62;48.16